Alma, Nebraska
Current Conditions -  °F | °C
As of 12:15 PM on Friday 31 Oct 2014 (Local Time) from KHDE Reporting Station
Clear Clear  
Wind Chill: 35°   Ceiling: Unl
Heat Index: 35°   Visibility: 10mi
Dew Point: 14°   Wind: 0mph
Humidity: 43%   Direction: NA
Pressure: 30.54"   Gusts: NA
Location:  40.1°N, 99.36°W
Report Text: KHDE 311715Z AUTO 00000KT 10SM CLR 02/M10 A3054 RMK AO2 T00161098
Loading
Personal Weather Stations






























Interactive Weather Map New forecast layout! Learn more

10-Day Weather Forecast

Advertisements
Track Severe Weather on mobile